sensor_id;sensor_type;location;lat;lon;timestamp;temperature;humidity
18153;DHT22;9202;51.578;7.734;2023-06-10T00:00:50;18.40;99.90
18153;DHT22;9202;51.578;7.734;2023-06-10T00:02:53;18.30;99.90
18153;DHT22;9202;51.578;7.734;2023-06-10T00:04:55;18.30;99.90
18153;DHT22;9202;51.578;7.734;2023-06-10T01:10:17;17.30;99.90
18153;DHT22;9202;51.578;7.734;2023-06-10T01:12:26;17.70;99.90
18153;DHT22;9202;51.578;7.734;2023-06-10T01:14:29;17.30;99.90
18153;DHT22;9202;51.578;7.734;2023-06-10T01:16:34;17.30;99.90
18153;DHT22;9202;51.578;7.734;2023-06-10T01:18:39;17.30;99.90
18153;DHT22;9202;51.578;7.734;2023-06-10T01:20:44;17.30;99.90
18153;DHT22;9202;51.578;7.734;2023-06-10T01:22:48;17.20;99.90
18153;DHT22;9202;51.578;7.734;2023-06-10T01:24:52;17.10;99.90
18153;DHT22;9202;51.578;7.734;2023-06-10T01:26:55;17.00;99.90
18153;DHT22;9202;51.578;7.734;2023-06-10T01:29:02;17.00;99.90
18153;DHT22;9202;51.578;7.734;2023-06-10T01:31:07;17.00;99.90
18153;DHT22;9202;51.578;7.734;2023-06-10T01:33:13;17.00;99.90
18153;DHT22;9202;51.578;7.734;2023-06-10T01:35:16;17.00;99.90
18153;DHT22;9202;51.578;7.734;2023-06-10T01:37:19;16.80;99.90
18153;DHT22;9202;51.578;7.734;2023-06-10T01:39:23;16.80;99.90
18153;DHT22;9202;51.578;7.734;2023-06-10T01:41:26;16.80;99.90
18153;DHT22;9202;51.578;7.734;2023-06-10T01:43:31;16.70;99.90
18153;DHT22;9202;51.578;7.734;2023-06-10T01:45:34;16.80;99.90
18153;DHT22;9202;51.578;7.734;2023-06-10T01:47:37;16.80;99.90
18153;DHT22;9202;51.578;7.734;2023-06-10T01:49:40;16.90;99.90
18153;DHT22;9202;51.578;7.734;2023-06-10T01:51:42;16.90;99.90
18153;DHT22;9202;51.578;7.734;2023-06-10T01:53:45;16.90;99.90
18153;DHT22;9202;51.578;7.734;2023-06-10T01:55:49;16.90;99.90
18153;DHT22;9202;51.578;7.734;2023-06-10T01:57:51;16.90;99.90
18153;DHT22;9202;51.578;7.734;2023-06-10T01:59:54;16.90;99.90
18153;DHT22;9202;51.578;7.734;2023-06-10T02:01:57;16.80;99.90
18153;DHT22;9202;51.578;7.734;2023-06-10T02:03:59;16.80;99.90
18153;DHT22;9202;51.578;7.734;2023-06-10T02:06:02;16.70;99.90
18153;DHT22;9202;51.578;7.734;2023-06-10T02:08:05;16.70;99.90
18153;DHT22;9202;51.578;7.734;2023-06-10T02:10:08;16.50;99.90
18153;DHT22;9202;51.578;7.734;2023-06-10T02:12:11;16.60;99.90
18153;DHT22;9202;51.578;7.734;2023-06-10T02:14:14;16.40;99.90
18153;DHT22;9202;51.578;7.734;2023-06-10T02:16:17;16.20;99.90
18153;DHT22;9202;51.578;7.734;2023-06-10T02:18:20;16.20;99.90
18153;DHT22;9202;51.578;7.734;2023-06-10T02:20:23;16.10;99.90
18153;DHT22;9202;51.578;7.734;2023-06-10T02:22:26;16.10;99.90
18153;DHT22;9202;51.578;7.734;2023-06-10T02:24:29;16.30;99.90
18153;DHT22;9202;51.578;7.734;2023-06-10T02:26:31;16.30;99.90
18153;DHT22;9202;51.578;7.734;2023-06-10T02:28:35;16.30;99.90
18153;DHT22;9202;51.578;7.734;2023-06-10T02:30:39;16.40;99.90
18153;DHT22;9202;51.578;7.734;2023-06-10T02:32:42;16.40;99.90
18153;DHT22;9202;51.578;7.734;2023-06-10T02:34:47;16.50;99.90
18153;DHT22;9202;51.578;7.734;2023-06-10T02:36:51;16.40;99.90
18153;DHT22;9202;51.578;7.734;2023-06-10T02:38:55;16.20;99.90
18153;DHT22;9202;51.578;7.734;2023-06-10T02:40:58;16.10;99.90
18153;DHT22;9202;51.578;7.734;2023-06-10T02:43:01;16.10;99.90
18153;DHT22;9202;51.578;7.734;2023-06-10T02:45:04;16.10;99.90
18153;DHT22;9202;51.578;7.734;2023-06-10T02:47:09;16.30;99.90
18153;DHT22;9202;51.578;7.734;2023-06-10T02:49:12;16.20;99.90
18153;DHT22;9202;51.578;7.734;2023-06-10T02:51:15;16.10;99.90
18153;DHT22;9202;51.578;7.734;2023-06-10T02:53:19;16.00;99.90
18153;DHT22;9202;51.578;7.734;2023-06-10T02:55:24;16.00;99.90
18153;DHT22;9202;51.578;7.734;2023-06-10T02:57:30;16.10;99.90
18153;DHT22;9202;51.578;7.734;2023-06-10T02:59:33;16.20;99.90
18153;DHT22;9202;51.578;7.734;2023-06-10T03:01:36;16.30;99.90
18153;DHT22;9202;51.578;7.734;2023-06-10T03:03:41;16.30;99.90
18153;DHT22;9202;51.578;7.734;2023-06-10T03:05:46;16.30;99.90
18153;DHT22;9202;51.578;7.734;2023-06-10T03:07:50;16.30;99.90
18153;DHT22;9202;51.578;7.734;2023-06-10T03:09:53;16.30;99.90
18153;DHT22;9202;51.578;7.734;2023-06-10T03:11:55;16.30;99.90
18153;DHT22;9202;51.578;7.734;2023-06-10T03:13:58;16.30;99.90
18153;DHT22;9202;51.578;7.734;2023-06-10T03:16:01;16.30;99.90
18153;DHT22;9202;51.578;7.734;2023-06-10T03:18:05;16.00;99.90
18153;DHT22;9202;51.578;7.734;2023-06-10T03:20:10;16.00;99.90
18153;DHT22;9202;51.578;7.734;2023-06-10T03:22:14;16.00;99.90
18153;DHT22;9202;51.578;7.734;2023-06-10T03:24:19;16.00;99.90
18153;DHT22;9202;51.578;7.734;2023-06-10T03:26:21;16.00;99.90
18153;DHT22;9202;51.578;7.734;2023-06-10T03:28:24;16.00;99.90
18153;DHT22;9202;51.578;7.734;2023-06-10T03:30:27;16.20;99.90
18153;DHT22;9202;51.578;7.734;2023-06-10T03:32:30;16.20;99.90
18153;DHT22;9202;51.578;7.734;2023-06-10T03:34:34;16.10;99.90
18153;DHT22;9202;51.578;7.734;2023-06-10T03:36:36;16.00;99.90
18153;DHT22;9202;51.578;7.734;2023-06-10T03:38:41;15.90;99.90
18153;DHT22;9202;51.578;7.734;2023-06-10T03:40:44;16.00;99.90
18153;DHT22;9202;51.578;7.734;2023-06-10T03:42:47;16.00;99.90
18153;DHT22;9202;51.578;7.734;2023-06-10T03:44:51;16.00;99.90
18153;DHT22;9202;51.578;7.734;2023-06-10T03:46:54;16.10;99.90
18153;DHT22;9202;51.578;7.734;2023-06-10T03:48:57;16.10;99.90
18153;DHT22;9202;51.578;7.734;2023-06-10T03:51:02;16.10;99.90
18153;DHT22;9202;51.578;7.734;2023-06-10T03:53:05;16.20;99.90
18153;DHT22;9202;51.578;7.734;2023-06-10T03:55:08;16.20;99.90
18153;DHT22;9202;51.578;7.734;2023-06-10T03:57:13;16.20;99.90
18153;DHT22;9202;51.578;7.734;2023-06-10T03:59:16;16.30;99.90
18153;DHT22;9202;51.578;7.734;2023-06-10T04:01:19;16.30;99.90
18153;DHT22;9202;51.578;7.734;2023-06-10T04:03:23;16.30;99.90
18153;DHT22;9202;51.578;7.734;2023-06-10T04:05:26;16.30;99.90
18153;DHT22;9202;51.578;7.734;2023-06-10T04:07:30;16.40;99.90
18153;DHT22;9202;51.578;7.734;2023-06-10T04:09:33;16.40;99.90
18153;DHT22;9202;51.578;7.734;2023-06-10T04:11:36;16.30;99.90
18153;DHT22;9202;51.578;7.734;2023-06-10T04:13:39;16.20;99.90
18153;DHT22;9202;51.578;7.734;2023-06-10T04:15:42;16.10;99.90
18153;DHT22;9202;51.578;7.734;2023-06-10T04:17:46;16.00;99.90
18153;DHT22;9202;51.578;7.734;2023-06-10T04:19:51;16.00;99.90
18153;DHT22;9202;51.578;7.734;2023-06-10T04:21:54;16.20;99.90
18153;DHT22;9202;51.578;7.734;2023-06-10T04:23:57;16.10;99.90
18153;DHT22;9202;51.578;7.734;2023-06-10T04:26:00;16.10;99.90
18153;DHT22;9202;51.578;7.734;2023-06-10T04:28:03;16.10;99.90
18153;DHT22;9202;51.578;7.734;2023-06-10T04:30:07;16.20;99.90
18153;DHT22;9202;51.578;7.734;2023-06-10T04:32:11;16.20;99.90
18153;DHT22;9202;51.578;7.734;2023-06-10T04:34:14;16.10;99.90
18153;DHT22;9202;51.578;7.734;2023-06-10T04:36:17;16.10;99.90
18153;DHT22;9202;51.578;7.734;2023-06-10T04:38:19;16.20;99.90
18153;DHT22;9202;51.578;7.734;2023-06-10T04:40:22;16.20;99.90
18153;DHT22;9202;51.578;7.734;2023-06-10T04:42:25;16.20;99.90
18153;DHT22;9202;51.578;7.734;2023-06-10T04:44:28;16.20;99.90
18153;DHT22;9202;51.578;7.734;2023-06-10T04:46:31;16.20;99.90
18153;DHT22;9202;51.578;7.734;2023-06-10T04:48:34;16.20;99.90
18153;DHT22;9202;51.578;7.734;2023-06-10T04:50:38;16.20;99.90
18153;DHT22;9202;51.578;7.734;2023-06-10T04:52:41;16.20;99.90
18153;DHT22;9202;51.578;7.734;2023-06-10T04:54:44;16.30;99.90
18153;DHT22;9202;51.578;7.734;2023-06-10T04:56:47;16.30;99.90
18153;DHT22;9202;51.578;7.734;2023-06-10T04:58:49;16.30;99.90
18153;DHT22;9202;51.578;7.734;2023-06-10T05:00:52;16.40;99.90
18153;DHT22;9202;51.578;7.734;2023-06-10T05:02:55;16.40;99.90
18153;DHT22;9202;51.578;7.734;2023-06-10T05:04:58;16.40;99.90
18153;DHT22;9202;51.578;7.734;2023-06-10T05:07:00;16.50;99.90
18153;DHT22;9202;51.578;7.734;2023-06-10T05:09:03;16.50;99.90
18153;DHT22;9202;51.578;7.734;2023-06-10T05:11:05;16.50;99.90
18153;DHT22;9202;51.578;7.734;2023-06-10T05:13:08;16.60;99.90
18153;DHT22;9202;51.578;7.734;2023-06-10T05:15:11;16.60;99.90
18153;DHT22;9202;51.578;7.734;2023-06-10T05:17:14;16.70;99.90
18153;DHT22;9202;51.578;7.734;2023-06-10T05:19:16;16.70;99.90
18153;DHT22;9202;51.578;7.734;2023-06-10T05:21:19;16.80;99.90
18153;DHT22;9202;51.578;7.734;2023-06-10T05:23:22;16.80;99.90
18153;DHT22;9202;51.578;7.734;2023-06-10T05:25:25;16.90;99.90
18153;DHT22;9202;51.578;7.734;2023-06-10T05:27:28;16.90;99.90
18153;DHT22;9202;51.578;7.734;2023-06-10T05:29:30;17.00;99.90
18153;DHT22;9202;51.578;7.734;2023-06-10T05:31:33;17.00;99.90
18153;DHT22;9202;51.578;7.734;2023-06-10T05:33:35;17.10;99.90
18153;DHT22;9202;51.578;7.734;2023-06-10T05:35:38;17.10;99.90
18153;DHT22;9202;51.578;7.734;2023-06-10T05:37:41;17.20;99.90
18153;DHT22;9202;51.578;7.734;2023-06-10T05:39:44;17.20;99.90
18153;DHT22;9202;51.578;7.734;2023-06-10T05:41:47;17.20;99.90
18153;DHT22;9202;51.578;7.734;2023-06-10T05:43:49;17.30;99.90
18153;DHT22;9202;51.578;7.734;2023-06-10T05:45:52;17.50;99.90
18153;DHT22;9202;51.578;7.734;2023-06-10T05:47:55;17.40;99.90
18153;DHT22;9202;51.578;7.734;2023-06-10T05:49:58;17.40;99.90
18153;DHT22;9202;51.578;7.734;2023-06-10T05:52:01;17.50;99.90
18153;DHT22;9202;51.578;7.734;2023-06-10T05:54:03;17.60;99.90
18153;DHT22;9202;51.578;7.734;2023-06-10T05:56:06;17.70;99.90
18153;DHT22;9202;51.578;7.734;2023-06-10T05:58:08;17.80;99.90
18153;DHT22;9202;51.578;7.734;2023-06-10T06:00:12;18.00;99.90
18153;DHT22;9202;51.578;7.734;2023-06-10T06:02:16;18.10;99.90
18153;DHT22;9202;51.578;7.734;2023-06-10T06:04:19;18.20;99.90
18153;DHT22;9202;51.578;7.734;2023-06-10T06:06:22;18.20;99.90
18153;DHT22;9202;51.578;7.734;2023-06-10T06:08:25;18.30;99.90
18153;DHT22;9202;51.578;7.734;2023-06-10T06:10:27;18.30;99.90
18153;DHT22;9202;51.578;7.734;2023-06-10T06:12:30;18.50;99.90
18153;DHT22;9202;51.578;7.734;2023-06-10T06:14:32;18.70;99.90
18153;DHT22;9202;51.578;7.734;2023-06-10T06:16:35;18.80;99.90
18153;DHT22;9202;51.578;7.734;2023-06-10T06:18:37;18.90;99.90
18153;DHT22;9202;51.578;7.734;2023-06-10T06:20:40;19.00;99.90
18153;DHT22;9202;51.578;7.734;2023-06-10T06:22:43;19.10;99.90
18153;DHT22;9202;51.578;7.734;2023-06-10T06:24:45;19.20;99.90
18153;DHT22;9202;51.578;7.734;2023-06-10T06:26:48;19.10;99.90
18153;DHT22;9202;51.578;7.734;2023-06-10T06:28:51;19.10;99.90
18153;DHT22;9202;51.578;7.734;2023-06-10T06:30:54;19.20;99.90
18153;DHT22;9202;51.578;7.734;2023-06-10T06:32:56;19.10;99.90
18153;DHT22;9202;51.578;7.734;2023-06-10T06:34:59;19.30;99.90
18153;DHT22;9202;51.578;7.734;2023-06-10T06:37:02;19.40;99.90
18153;DHT22;9202;51.578;7.734;2023-06-10T06:39:05;19.40;99.90
18153;DHT22;9202;51.578;7.734;2023-06-10T06:41:08;19.50;99.90
18153;DHT22;9202;51.578;7.734;2023-06-10T06:43:11;19.50;99.90
18153;DHT22;9202;51.578;7.734;2023-06-10T06:45:16;19.60;99.90
18153;DHT22;9202;51.578;7.734;2023-06-10T06:47:18;19.50;99.90
18153;DHT22;9202;51.578;7.734;2023-06-10T06:49:22;19.80;99.90
18153;DHT22;9202;51.578;7.734;2023-06-10T06:51:24;19.80;99.90
18153;DHT22;9202;51.578;7.734;2023-06-10T06:53:27;20.00;99.90
18153;DHT22;9202;51.578;7.734;2023-06-10T06:55:31;20.00;99.90
18153;DHT22;9202;51.578;7.734;2023-06-10T06:57:34;20.00;99.90
18153;DHT22;9202;51.578;7.734;2023-06-10T06:59:37;20.00;99.90
18153;DHT22;9202;51.578;7.734;2023-06-10T07:01:39;20.10;99.90
18153;DHT22;9202;51.578;7.734;2023-06-10T07:03:42;20.10;99.90
18153;DHT22;9202;51.578;7.734;2023-06-10T07:05:44;20.30;99.90
18153;DHT22;9202;51.578;7.734;2023-06-10T07:07:47;20.50;99.90
18153;DHT22;9202;51.578;7.734;2023-06-10T07:09:50;20.50;99.90
18153;DHT22;9202;51.578;7.734;2023-06-10T07:11:52;20.60;99.90
18153;DHT22;9202;51.578;7.734;2023-06-10T07:13:55;20.70;99.90
18153;DHT22;9202;51.578;7.734;2023-06-10T07:15:58;20.80;99.90
18153;DHT22;9202;51.578;7.734;2023-06-10T07:18:00;20.80;99.90
18153;DHT22;9202;51.578;7.734;2023-06-10T07:20:04;20.90;99.90
18153;DHT22;9202;51.578;7.734;2023-06-10T07:22:07;21.00;99.90
18153;DHT22;9202;51.578;7.734;2023-06-10T07:24:10;21.00;99.90
18153;DHT22;9202;51.578;7.734;2023-06-10T07:26:13;21.10;99.90
18153;DHT22;9202;51.578;7.734;2023-06-10T07:28:16;21.20;99.90
18153;DHT22;9202;51.578;7.734;2023-06-10T07:30:18;21.30;99.90
18153;DHT22;9202;51.578;7.734;2023-06-10T07:32:21;21.30;99.90
18153;DHT22;9202;51.578;7.734;2023-06-10T07:34:25;21.40;99.90
18153;DHT22;9202;51.578;7.734;2023-06-10T07:36:28;21.40;99.90
18153;DHT22;9202;51.578;7.734;2023-06-10T07:38:31;21.50;99.90
18153;DHT22;9202;51.578;7.734;2023-06-10T07:40:34;21.60;99.90
18153;DHT22;9202;51.578;7.734;2023-06-10T07:42:37;21.70;99.90
18153;DHT22;9202;51.578;7.734;2023-06-10T07:44:39;21.70;99.90
18153;DHT22;9202;51.578;7.734;2023-06-10T07:46:42;21.70;99.90
18153;DHT22;9202;51.578;7.734;2023-06-10T07:48:44;21.80;99.90
18153;DHT22;9202;51.578;7.734;2023-06-10T07:50:47;21.90;99.90
18153;DHT22;9202;51.578;7.734;2023-06-10T07:52:50;21.90;99.90
18153;DHT22;9202;51.578;7.734;2023-06-10T07:54:52;22.00;99.90
18153;DHT22;9202;51.578;7.734;2023-06-10T07:56:55;22.10;99.90
18153;DHT22;9202;51.578;7.734;2023-06-10T07:58:57;22.30;99.90
18153;DHT22;9202;51.578;7.734;2023-06-10T08:01:00;22.40;99.90
18153;DHT22;9202;51.578;7.734;2023-06-10T08:03:03;22.60;99.90
18153;DHT22;9202;51.578;7.734;2023-06-10T08:05:06;22.70;99.90
18153;DHT22;9202;51.578;7.734;2023-06-10T08:07:09;22.80;99.90
18153;DHT22;9202;51.578;7.734;2023-06-10T08:09:12;22.90;99.90
18153;DHT22;9202;51.578;7.734;2023-06-10T08:11:14;23.00;99.90
18153;DHT22;9202;51.578;7.734;2023-06-10T08:13:17;23.20;99.90
18153;DHT22;9202;51.578;7.734;2023-06-10T08:15:20;23.30;99.90
18153;DHT22;9202;51.578;7.734;2023-06-10T08:17:22;23.40;99.90
18153;DHT22;9202;51.578;7.734;2023-06-10T08:19:26;23.60;99.90
18153;DHT22;9202;51.578;7.734;2023-06-10T08:21:28;23.70;99.90
18153;DHT22;9202;51.578;7.734;2023-06-10T08:23:32;23.70;99.90
18153;DHT22;9202;51.578;7.734;2023-06-10T08:25:34;23.80;99.90
18153;DHT22;9202;51.578;7.734;2023-06-10T08:27:37;23.90;99.90
18153;DHT22;9202;51.578;7.734;2023-06-10T08:29:39;23.90;99.90
18153;DHT22;9202;51.578;7.734;2023-06-10T08:31:42;24.00;99.90
18153;DHT22;9202;51.578;7.734;2023-06-10T08:33:45;24.10;99.90
18153;DHT22;9202;51.578;7.734;2023-06-10T08:35:48;24.10;99.90
18153;DHT22;9202;51.578;7.734;2023-06-10T08:37:50;24.10;99.90
18153;DHT22;9202;51.578;7.734;2023-06-10T08:39:53;24.20;99.90
18153;DHT22;9202;51.578;7.734;2023-06-10T08:41:58;24.30;99.90
18153;DHT22;9202;51.578;7.734;2023-06-10T08:44:03;24.30;99.90
18153;DHT22;9202;51.578;7.734;2023-06-10T08:46:07;24.50;99.90
18153;DHT22;9202;51.578;7.734;2023-06-10T08:48:10;24.60;99.90
18153;DHT22;9202;51.578;7.734;2023-06-10T08:50:15;24.80;99.90
18153;DHT22;9202;51.578;7.734;2023-06-10T08:52:20;24.80;99.90
18153;DHT22;9202;51.578;7.734;2023-06-10T08:54:24;24.90;99.90
18153;DHT22;9202;51.578;7.734;2023-06-10T08:56:27;25.00;99.90
18153;DHT22;9202;51.578;7.734;2023-06-10T08:58:30;25.30;99.90
18153;DHT22;9202;51.578;7.734;2023-06-10T09:00:35;25.30;99.90
18153;DHT22;9202;51.578;7.734;2023-06-10T09:02:37;25.60;99.90
18153;DHT22;9202;51.578;7.734;2023-06-10T09:04:40;25.80;99.90
18153;DHT22;9202;51.578;7.734;2023-06-10T09:06:44;25.90;99.90
18153;DHT22;9202;51.578;7.734;2023-06-10T09:08:47;25.60;99.90
18153;DHT22;9202;51.578;7.734;2023-06-10T09:10:49;25.70;99.90
18153;DHT22;9202;51.578;7.734;2023-06-10T09:12:52;25.90;99.90
18153;DHT22;9202;51.578;7.734;2023-06-10T09:14:55;26.00;99.90
18153;DHT22;9202;51.578;7.734;2023-06-10T09:16:58;26.00;99.90
18153;DHT22;9202;51.578;7.734;2023-06-10T09:19:00;26.30;99.90
18153;DHT22;9202;51.578;7.734;2023-06-10T09:21:05;26.20;99.90
18153;DHT22;9202;51.578;7.734;2023-06-10T09:23:07;26.20;99.90
18153;DHT22;9202;51.578;7.734;2023-06-10T09:25:11;26.30;99.90
18153;DHT22;9202;51.578;7.734;2023-06-10T09:27:14;26.50;99.90
18153;DHT22;9202;51.578;7.734;2023-06-10T09:29:17;26.40;99.90
18153;DHT22;9202;51.578;7.734;2023-06-10T09:31:20;26.20;99.90
18153;DHT22;9202;51.578;7.734;2023-06-10T09:33:23;26.50;99.90
18153;DHT22;9202;51.578;7.734;2023-06-10T09:35:29;26.50;99.90
18153;DHT22;9202;51.578;7.734;2023-06-10T09:37:31;26.10;99.90
18153;DHT22;9202;51.578;7.734;2023-06-10T09:39:34;26.00;99.90
18153;DHT22;9202;51.578;7.734;2023-06-10T09:41:39;25.90;99.90
18153;DHT22;9202;51.578;7.734;2023-06-10T09:43:42;26.10;99.90
18153;DHT22;9202;51.578;7.734;2023-06-10T09:45:47;26.30;99.90
18153;DHT22;9202;51.578;7.734;2023-06-10T09:47:53;26.20;99.90
18153;DHT22;9202;51.578;7.734;2023-06-10T09:49:56;26.00;99.90
18153;DHT22;9202;51.578;7.734;2023-06-10T09:51:58;26.20;99.90
18153;DHT22;9202;51.578;7.734;2023-06-10T09:54:02;26.20;99.90
18153;DHT22;9202;51.578;7.734;2023-06-10T09:56:05;26.30;99.90
18153;DHT22;9202;51.578;7.734;2023-06-10T09:58:10;26.70;99.90
18153;DHT22;9202;51.578;7.734;2023-06-10T10:00:13;27.00;99.90
18153;DHT22;9202;51.578;7.734;2023-06-10T10:02:16;27.00;99.90
18153;DHT22;9202;51.578;7.734;2023-06-10T10:04:23;27.10;99.90
18153;DHT22;9202;51.578;7.734;2023-06-10T10:06:26;27.00;99.90
18153;DHT22;9202;51.578;7.734;2023-06-10T10:08:29;26.80;99.90
18153;DHT22;9202;51.578;7.734;2023-06-10T10:10:32;26.60;99.90
18153;DHT22;9202;51.578;7.734;2023-06-10T10:12:35;26.70;99.90
18153;DHT22;9202;51.578;7.734;2023-06-10T10:14:39;26.70;99.90
18153;DHT22;9202;51.578;7.734;2023-06-10T10:16:43;26.90;99.90
18153;DHT22;9202;51.578;7.734;2023-06-10T10:18:49;27.10;99.90
18153;DHT22;9202;51.578;7.734;2023-06-10T10:20:51;27.30;99.90
18153;DHT22;9202;51.578;7.734;2023-06-10T10:22:57;27.00;99.90
18153;DHT22;9202;51.578;7.734;2023-06-10T10:25:01;27.10;99.90
18153;DHT22;9202;51.578;7.734;2023-06-10T10:27:07;27.30;99.90
18153;DHT22;9202;51.578;7.734;2023-06-10T10:29:11;27.30;99.90
18153;DHT22;9202;51.578;7.734;2023-06-10T10:31:15;27.40;99.90
18153;DHT22;9202;51.578;7.734;2023-06-10T10:33:22;27.40;99.90
18153;DHT22;9202;51.578;7.734;2023-06-10T10:35:25;27.40;99.90
18153;DHT22;9202;51.578;7.734;2023-06-10T10:37:28;27.50;99.90
18153;DHT22;9202;51.578;7.734;2023-06-10T10:39:31;27.60;99.90
18153;DHT22;9202;51.578;7.734;2023-06-10T10:41:35;27.70;99.90
18153;DHT22;9202;51.578;7.734;2023-06-10T10:43:39;27.80;99.90
18153;DHT22;9202;51.578;7.734;2023-06-10T10:45:42;27.90;99.90
18153;DHT22;9202;51.578;7.734;2023-06-10T10:47:47;27.90;99.90
18153;DHT22;9202;51.578;7.734;2023-06-10T10:49:51;27.90;99.90
18153;DHT22;9202;51.578;7.734;2023-06-10T10:51:55;28.30;99.90
18153;DHT22;9202;51.578;7.734;2023-06-10T10:54:11;27.80;99.90
18153;DHT22;9202;51.578;7.734;2023-06-10T10:56:15;27.80;99.90
18153;DHT22;9202;51.578;7.734;2023-06-10T10:58:18;27.70;99.90
18153;DHT22;9202;51.578;7.734;2023-06-10T11:00:27;27.90;99.90
18153;DHT22;9202;51.578;7.734;2023-06-10T11:02:34;28.00;99.90
18153;DHT22;9202;51.578;7.734;2023-06-10T11:04:43;28.20;99.90
18153;DHT22;9202;51.578;7.734;2023-06-10T11:06:52;28.00;99.90
18153;DHT22;9202;51.578;7.734;2023-06-10T11:08:55;28.00;99.90
18153;DHT22;9202;51.578;7.734;2023-06-10T11:11:00;27.90;99.90
18153;DHT22;9202;51.578;7.734;2023-06-10T11:13:06;27.90;99.90
18153;DHT22;9202;51.578;7.734;2023-06-10T11:15:09;27.60;99.90
18153;DHT22;9202;51.578;7.734;2023-06-10T11:17:18;27.80;99.90
18153;DHT22;9202;51.578;7.734;2023-06-10T11:21:57;28.00;99.90
18153;DHT22;9202;51.578;7.734;2023-06-10T11:24:09;28.10;99.90
18153;DHT22;9202;51.578;7.734;2023-06-10T11:26:15;28.30;99.90
18153;DHT22;9202;51.578;7.734;2023-06-10T11:28:19;28.20;99.90
18153;DHT22;9202;51.578;7.734;2023-06-10T11:30:23;28.30;99.90
18153;DHT22;9202;51.578;7.734;2023-06-10T11:32:29;28.30;99.90
18153;DHT22;9202;51.578;7.734;2023-06-10T11:34:32;28.40;99.90
18153;DHT22;9202;51.578;7.734;2023-06-10T11:36:36;28.50;99.90
18153;DHT22;9202;51.578;7.734;2023-06-10T11:38:39;28.20;99.90
18153;DHT22;9202;51.578;7.734;2023-06-10T11:40:46;28.30;99.90
18153;DHT22;9202;51.578;7.734;2023-06-10T11:42:50;28.40;99.90
18153;DHT22;9202;51.578;7.734;2023-06-10T11:44:53;28.30;99.90
18153;DHT22;9202;51.578;7.734;2023-06-10T11:46:56;28.40;99.90
18153;DHT22;9202;51.578;7.734;2023-06-10T11:48:59;28.40;99.90
18153;DHT22;9202;51.578;7.734;2023-06-10T11:51:05;28.50;99.90
18153;DHT22;9202;51.578;7.734;2023-06-10T11:53:08;28.20;99.90
18153;DHT22;9202;51.578;7.734;2023-06-10T11:55:11;28.20;99.90
18153;DHT22;9202;51.578;7.734;2023-06-10T11:57:14;28.30;99.90
18153;DHT22;9202;51.578;7.734;2023-06-10T11:59:17;28.60;99.90
18153;DHT22;9202;51.578;7.734;2023-06-10T12:01:20;28.50;99.90
18153;DHT22;9202;51.578;7.734;2023-06-10T12:03:26;28.40;99.90
18153;DHT22;9202;51.578;7.734;2023-06-10T12:05:28;28.40;99.90
18153;DHT22;9202;51.578;7.734;2023-06-10T12:07:31;28.50;99.90
18153;DHT22;9202;51.578;7.734;2023-06-10T12:09:34;28.60;99.90
18153;DHT22;9202;51.578;7.734;2023-06-10T12:11:36;28.50;99.90
18153;DHT22;9202;51.578;7.734;2023-06-10T12:13:46;28.50;99.90
18153;DHT22;9202;51.578;7.734;2023-06-10T12:15:45;28.50;99.90
18153;DHT22;9202;51.578;7.734;2023-06-10T12:17:48;28.20;99.10
18153;DHT22;9202;51.578;7.734;2023-06-10T12:19:51;28.40;99.90
18153;DHT22;9202;51.578;7.734;2023-06-10T12:21:54;28.50;99.90
18153;DHT22;9202;51.578;7.734;2023-06-10T12:24:03;28.50;99.90
18153;DHT22;9202;51.578;7.734;2023-06-10T12:26:07;28.70;99.90
18153;DHT22;9202;51.578;7.734;2023-06-10T12:28:09;28.60;99.90
18153;DHT22;9202;51.578;7.734;2023-06-10T12:30:17;28.70;99.90
18153;DHT22;9202;51.578;7.734;2023-06-10T12:32:17;28.70;99.90
18153;DHT22;9202;51.578;7.734;2023-06-10T12:34:28;28.70;99.80
18153;DHT22;9202;51.578;7.734;2023-06-10T12:36:30;28.70;99.40
18153;DHT22;9202;51.578;7.734;2023-06-10T12:38:34;28.70;99.00
18153;DHT22;9202;51.578;7.734;2023-06-10T12:40:37;28.70;99.90
18153;DHT22;9202;51.578;7.734;2023-06-10T12:42:42;28.80;99.90
18153;DHT22;9202;51.578;7.734;2023-06-10T12:44:46;28.80;99.60
18153;DHT22;9202;51.578;7.734;2023-06-10T12:46:54;29.00;99.90
18153;DHT22;9202;51.578;7.734;2023-06-10T12:48:57;28.90;97.90
18153;DHT22;9202;51.578;7.734;2023-06-10T12:51:00;29.00;99.90
18153;DHT22;9202;51.578;7.734;2023-06-10T12:53:03;29.00;99.90
18153;DHT22;9202;51.578;7.734;2023-06-10T12:55:06;28.80;99.20
18153;DHT22;9202;51.578;7.734;2023-06-10T12:57:09;28.90;99.90
18153;DHT22;9202;51.578;7.734;2023-06-10T12:59:12;28.90;99.30
18153;DHT22;9202;51.578;7.734;2023-06-10T13:01:16;28.80;98.80
18153;DHT22;9202;51.578;7.734;2023-06-10T13:03:19;29.00;99.90
18153;DHT22;9202;51.578;7.734;2023-06-10T13:05:22;28.90;98.90
18153;DHT22;9202;51.578;7.734;2023-06-10T13:07:25;29.00;99.90
18153;DHT22;9202;51.578;7.734;2023-06-10T13:09:28;29.00;99.90
18153;DHT22;9202;51.578;7.734;2023-06-10T13:11:31;29.10;98.70
18153;DHT22;9202;51.578;7.734;2023-06-10T13:13:33;29.20;97.90
18153;DHT22;9202;51.578;7.734;2023-06-10T13:15:37;29.10;99.30
18153;DHT22;9202;51.578;7.734;2023-06-10T13:17:42;29.00;96.90
18153;DHT22;9202;51.578;7.734;2023-06-10T13:19:45;28.90;96.50
18153;DHT22;9202;51.578;7.734;2023-06-10T13:21:48;29.00;97.40
18153;DHT22;9202;51.578;7.734;2023-06-10T13:23:50;29.00;97.50
18153;DHT22;9202;51.578;7.734;2023-06-10T13:25:53;28.90;97.10
18153;DHT22;9202;51.578;7.734;2023-06-10T13:27:56;29.00;96.50
18153;DHT22;9202;51.578;7.734;2023-06-10T13:29:59;28.90;97.10
18153;DHT22;9202;51.578;7.734;2023-06-10T13:32:02;28.70;96.40
18153;DHT22;9202;51.578;7.734;2023-06-10T13:34:04;28.80;96.70
18153;DHT22;9202;51.578;7.734;2023-06-10T13:36:07;28.80;97.00
18153;DHT22;9202;51.578;7.734;2023-06-10T13:38:09;28.90;97.00
18153;DHT22;9202;51.578;7.734;2023-06-10T13:40:12;28.80;96.30
18153;DHT22;9202;51.578;7.734;2023-06-10T13:42:15;28.90;97.00
18153;DHT22;9202;51.578;7.734;2023-06-10T13:44:17;29.00;97.30
18153;DHT22;9202;51.578;7.734;2023-06-10T13:46:20;29.10;99.90
18153;DHT22;9202;51.578;7.734;2023-06-10T13:48:24;29.00;97.70
18153;DHT22;9202;51.578;7.734;2023-06-10T13:50:26;29.10;99.90
18153;DHT22;9202;51.578;7.734;2023-06-10T13:52:29;29.30;99.10
18153;DHT22;9202;51.578;7.734;2023-06-10T13:54:32;29.20;97.90
18153;DHT22;9202;51.578;7.734;2023-06-10T13:56:34;29.20;99.80
18153;DHT22;9202;51.578;7.734;2023-06-10T13:58:39;29.00;95.50
18153;DHT22;9202;51.578;7.734;2023-06-10T14:00:43;29.10;97.80
18153;DHT22;9202;51.578;7.734;2023-06-10T14:02:45;29.20;97.50
18153;DHT22;9202;51.578;7.734;2023-06-10T14:04:48;29.40;99.90
18153;DHT22;9202;51.578;7.734;2023-06-10T14:09:07;29.10;96.60
18153;DHT22;9202;51.578;7.734;2023-06-10T14:11:09;29.20;97.60
18153;DHT22;9202;51.578;7.734;2023-06-10T14:13:12;29.10;96.70
18153;DHT22;9202;51.578;7.734;2023-06-10T14:15:15;29.10;99.70
18153;DHT22;9202;51.578;7.734;2023-06-10T14:17:18;29.20;99.70
18153;DHT22;9202;51.578;7.734;2023-06-10T14:19:20;29.20;97.90